sensor_id;sensor_type;location;lat;lon;timestamp;pressure;altitude;pressure_sealevel;temperature;humidity
49194;BME280;35029;50.804;12.866;2024-01-30T00:01:25;99037.59;;;0.44;98.22
49194;BME280;35029;50.804;12.866;2024-01-30T00:03:51;99037.03;;;0.39;97.40
49194;BME280;35029;50.804;12.866;2024-01-30T00:06:19;99028.22;;;0.27;98.46
49194;BME280;35029;50.804;12.866;2024-01-30T00:08:49;99038.44;;;0.30;98.29
49194;BME280;35029;50.804;12.866;2024-01-30T00:11:15;99032.81;;;0.23;98.41
49194;BME280;35029;50.804;12.866;2024-01-30T00:13:42;99033.38;;;0.14;98.34
49194;BME280;35029;50.804;12.866;2024-01-30T00:16:08;99050.09;;;0.24;99.02
49194;BME280;35029;50.804;12.866;2024-01-30T00:18:35;99051.13;;;0.22;98.22
49194;BME280;35029;50.804;12.866;2024-01-30T00:21:00;99024.00;;;0.11;98.76
49194;BME280;35029;50.804;12.866;2024-01-30T00:23:26;99048.53;;;0.22;98.78
49194;BME280;35029;50.804;12.866;2024-01-30T00:25:52;99040.75;;;0.07;98.07
49194;BME280;35029;50.804;12.866;2024-01-30T00:28:17;99045.41;;;0.02;99.24
49194;BME280;35029;50.804;12.866;2024-01-30T00:30:43;99048.84;;;0.03;99.43
49194;BME280;35029;50.804;12.866;2024-01-30T00:33:09;99041.34;;;-0.02;98.97
49194;BME280;35029;50.804;12.866;2024-01-30T00:35:35;99039.09;;;-0.08;99.38
49194;BME280;35029;50.804;12.866;2024-01-30T00:38:00;99030.44;;;-0.09;99.54
49194;BME280;35029;50.804;12.866;2024-01-30T00:40:26;99037.81;;;-0.01;100.00
49194;BME280;35029;50.804;12.866;2024-01-30T00:42:52;99033.88;;;-0.08;100.00
49194;BME280;35029;50.804;12.866;2024-01-30T00:45:17;99042.34;;;-0.05;99.00
49194;BME280;35029;50.804;12.866;2024-01-30T00:47:43;99046.91;;;-0.08;99.36
49194;BME280;35029;50.804;12.866;2024-01-30T00:50:09;99031.88;;;-0.18;100.00
49194;BME280;35029;50.804;12.866;2024-01-30T00:52:35;99033.97;;;-0.10;99.39
49194;BME280;35029;50.804;12.866;2024-01-30T00:55:02;99036.69;;;-0.11;99.34
49194;BME280;35029;50.804;12.866;2024-01-30T00:57:28;99026.09;;;-0.23;100.00
49194;BME280;35029;50.804;12.866;2024-01-30T00:59:53;99040.88;;;-0.23;100.00
49194;BME280;35029;50.804;12.866;2024-01-30T01:02:20;99045.38;;;-0.25;99.88
49194;BME280;35029;50.804;12.866;2024-01-30T01:04:46;99032.44;;;-0.27;100.00
49194;BME280;35029;50.804;12.866;2024-01-30T01:07:11;99027.94;;;-0.25;100.00
49194;BME280;35029;50.804;12.866;2024-01-30T01:09:37;99044.91;;;-0.18;100.00
49194;BME280;35029;50.804;12.866;2024-01-30T01:12:03;99047.50;;;-0.18;100.00
49194;BME280;35029;50.804;12.866;2024-01-30T01:14:29;99037.09;;;-0.18;100.00
49194;BME280;35029;50.804;12.866;2024-01-30T01:16:56;99031.13;;;-0.20;100.00
49194;BME280;35029;50.804;12.866;2024-01-30T01:19:21;99024.22;;;-0.21;100.00
49194;BME280;35029;50.804;12.866;2024-01-30T01:21:47;99004.53;;;-0.39;100.00
49194;BME280;35029;50.804;12.866;2024-01-30T01:24:13;99028.06;;;-0.26;100.00
49194;BME280;35029;50.804;12.866;2024-01-30T01:26:39;99026.19;;;-0.24;100.00
49194;BME280;35029;50.804;12.866;2024-01-30T01:29:04;99026.84;;;-0.21;100.00
49194;BME280;35029;50.804;12.866;2024-01-30T01:31:38;99007.69;;;-0.34;100.00
49194;BME280;35029;50.804;12.866;2024-01-30T01:34:11;99017.38;;;-0.36;100.00
49194;BME280;35029;50.804;12.866;2024-01-30T01:36:36;99025.53;;;-0.28;100.00
49194;BME280;35029;50.804;12.866;2024-01-30T01:39:02;99009.25;;;-0.31;100.00
49194;BME280;35029;50.804;12.866;2024-01-30T01:41:32;99020.34;;;-0.28;100.00
49194;BME280;35029;50.804;12.866;2024-01-30T01:43:58;99022.00;;;-0.27;100.00
49194;BME280;35029;50.804;12.866;2024-01-30T01:46:26;99008.44;;;-0.32;100.00
49194;BME280;35029;50.804;12.866;2024-01-30T01:48:52;99010.09;;;-0.31;100.00
49194;BME280;35029;50.804;12.866;2024-01-30T01:51:19;99000.81;;;-0.35;100.00
49194;BME280;35029;50.804;12.866;2024-01-30T01:53:45;99012.81;;;-0.32;100.00
49194;BME280;35029;50.804;12.866;2024-01-30T01:56:11;99028.16;;;-0.28;100.00
49194;BME280;35029;50.804;12.866;2024-01-30T01:58:37;99021.16;;;-0.27;100.00
49194;BME280;35029;50.804;12.866;2024-01-30T02:01:03;99013.44;;;-0.29;100.00
49194;BME280;35029;50.804;12.866;2024-01-30T02:03:30;99020.34;;;-0.28;100.00
49194;BME280;35029;50.804;12.866;2024-01-30T02:05:56;98988.91;;;-0.39;100.00
49194;BME280;35029;50.804;12.866;2024-01-30T02:08:24;99002.28;;;-0.31;100.00
49194;BME280;35029;50.804;12.866;2024-01-30T02:10:50;99023.75;;;-0.27;100.00
49194;BME280;35029;50.804;12.866;2024-01-30T02:13:15;99006.66;;;-0.31;100.00
49194;BME280;35029;50.804;12.866;2024-01-30T02:15:41;99010.09;;;-0.31;100.00
49194;BME280;35029;50.804;12.866;2024-01-30T02:18:06;99000.59;;;-0.32;100.00
49194;BME280;35029;50.804;12.866;2024-01-30T02:20:34;98993.56;;;-0.30;100.00
49194;BME280;35029;50.804;12.866;2024-01-30T02:23:01;99014.09;;;-0.25;100.00
49194;BME280;35029;50.804;12.866;2024-01-30T02:25:35;99008.88;;;-0.25;100.00
49194;BME280;35029;50.804;12.866;2024-01-30T02:28:01;99002.28;;;-0.31;100.00
49194;BME280;35029;50.804;12.866;2024-01-30T02:30:26;99021.81;;;-0.24;100.00
49194;BME280;35029;50.804;12.866;2024-01-30T02:32:52;99014.91;;;-0.25;100.00
49194;BME280;35029;50.804;12.866;2024-01-30T02:35:17;99021.63;;;-0.21;100.00
49194;BME280;35029;50.804;12.866;2024-01-30T02:37:43;99013.06;;;-0.23;100.00
49194;BME280;35029;50.804;12.866;2024-01-30T02:40:08;98998.94;;;-0.33;100.00
49194;BME280;35029;50.804;12.866;2024-01-30T02:42:34;98997.19;;;-0.32;100.00
49194;BME280;35029;50.804;12.866;2024-01-30T02:45:00;99015.03;;;-0.26;100.00
49194;BME280;35029;50.804;12.866;2024-01-30T02:47:25;98997.91;;;-0.30;100.00
49194;BME280;35029;50.804;12.866;2024-01-30T02:49:51;99004.34;;;-0.22;100.00
49194;BME280;35029;50.804;12.866;2024-01-30T02:52:17;99011.19;;;-0.21;100.00
49194;BME280;35029;50.804;12.866;2024-01-30T02:54:42;98993.97;;;-0.23;100.00
49194;BME280;35029;50.804;12.866;2024-01-30T02:57:08;99011.94;;;-0.19;100.00
49194;BME280;35029;50.804;12.866;2024-01-30T02:59:33;99002.25;;;-0.17;100.00
49194;BME280;35029;50.804;12.866;2024-01-30T03:02:01;99002.25;;;-0.17;100.00
49194;BME280;35029;50.804;12.866;2024-01-30T03:04:26;99001.44;;;-0.17;100.00
49194;BME280;35029;50.804;12.866;2024-01-30T03:06:52;99004.97;;;-0.18;100.00
49194;BME280;35029;50.804;12.866;2024-01-30T03:09:18;99004.84;;;-0.17;100.00
49194;BME280;35029;50.804;12.866;2024-01-30T03:11:44;99003.09;;;-0.16;100.00
49194;BME280;35029;50.804;12.866;2024-01-30T03:14:09;99002.34;;;-0.18;100.00
49194;BME280;35029;50.804;12.866;2024-01-30T03:16:38;98996.31;;;-0.19;100.00
49194;BME280;35029;50.804;12.866;2024-01-30T03:19:06;98984.78;;;-0.29;100.00
49194;BME280;35029;50.804;12.866;2024-01-30T03:21:33;98998.09;;;-0.19;100.00
49194;BME280;35029;50.804;12.866;2024-01-30T03:23:59;98966.19;;;-0.37;100.00
49194;BME280;35029;50.804;12.866;2024-01-30T03:26:25;98994.34;;;-0.15;100.00
49194;BME280;35029;50.804;12.866;2024-01-30T03:28:50;98990.91;;;-0.15;100.00
49194;BME280;35029;50.804;12.866;2024-01-30T03:31:16;98993.59;;;-0.17;100.00
49194;BME280;35029;50.804;12.866;2024-01-30T03:33:42;98992.47;;;-0.13;100.00
49194;BME280;35029;50.804;12.866;2024-01-30T03:36:08;98996.66;;;-0.10;100.00
49194;BME280;35029;50.804;12.866;2024-01-30T03:38:34;98999.38;;;-0.12;100.00
49194;BME280;35029;50.804;12.866;2024-01-30T03:41:00;98997.69;;;-0.13;100.00
49194;BME280;35029;50.804;12.866;2024-01-30T03:43:26;98991.66;;;-0.13;100.00
49194;BME280;35029;50.804;12.866;2024-01-30T03:45:51;98992.03;;;-0.20;100.00
49194;BME280;35029;50.804;12.866;2024-01-30T03:48:17;98991.38;;;-0.23;100.00
49194;BME280;35029;50.804;12.866;2024-01-30T03:50:43;98989.72;;;-0.24;100.00
49194;BME280;35029;50.804;12.866;2024-01-30T03:53:08;98988.75;;;-0.23;100.00
49194;BME280;35029;50.804;12.866;2024-01-30T03:55:34;98982.81;;;-0.25;100.00
49194;BME280;35029;50.804;12.866;2024-01-30T03:58:00;98939.88;;;-0.47;100.00
49194;BME280;35029;50.804;12.866;2024-01-30T04:00:25;98987.22;;;-0.26;100.00
49194;BME280;35029;50.804;12.866;2024-01-30T04:02:51;98984.50;;;-0.24;100.00
49194;BME280;35029;50.804;12.866;2024-01-30T04:05:16;98982.06;;;-0.27;100.00
49194;BME280;35029;50.804;12.866;2024-01-30T04:07:42;98983.03;;;-0.28;100.00
49194;BME280;35029;50.804;12.866;2024-01-30T04:10:09;98984.06;;;-0.31;100.00
49194;BME280;35029;50.804;12.866;2024-01-30T04:12:35;98976.34;;;-0.32;100.00
49194;BME280;35029;50.804;12.866;2024-01-30T04:15:01;98968.25;;;-0.42;100.00
49194;BME280;35029;50.804;12.866;2024-01-30T04:17:27;98963.13;;;-0.44;100.00
49194;BME280;35029;50.804;12.866;2024-01-30T04:19:54;98975.47;;;-0.33;100.00
49194;BME280;35029;50.804;12.866;2024-01-30T04:22:20;98977.47;;;-0.37;100.00
49194;BME280;35029;50.804;12.866;2024-01-30T04:24:46;98956.72;;;-0.38;100.00
49194;BME280;35029;50.804;12.866;2024-01-30T04:27:11;98958.88;;;-0.45;100.00
49194;BME280;35029;50.804;12.866;2024-01-30T04:29:37;98976.69;;;-0.39;100.00
49194;BME280;35029;50.804;12.866;2024-01-30T04:32:03;98981.09;;;-0.39;100.00
49194;BME280;35029;50.804;12.866;2024-01-30T04:34:29;98968.97;;;-0.40;100.00
49194;BME280;35029;50.804;12.866;2024-01-30T04:36:54;98960.81;;;-0.48;100.00
49194;BME280;35029;50.804;12.866;2024-01-30T04:39:20;98953.00;;;-0.48;100.00
49194;BME280;35029;50.804;12.866;2024-01-30T04:41:46;98958.50;;;-0.53;100.00
49194;BME280;35029;50.804;12.866;2024-01-30T04:44:12;98970.31;;;-0.47;100.00
49194;BME280;35029;50.804;12.866;2024-01-30T04:46:37;98967.50;;;-0.44;100.00
49194;BME280;35029;50.804;12.866;2024-01-30T04:49:03;98963.41;;;-0.48;100.00
49194;BME280;35029;50.804;12.866;2024-01-30T04:51:29;98960.16;;;-0.52;100.00
49194;BME280;35029;50.804;12.866;2024-01-30T04:53:55;98957.84;;;-0.57;100.00
49194;BME280;35029;50.804;12.866;2024-01-30T04:56:20;98968.81;;;-0.52;100.00
49194;BME280;35029;50.804;12.866;2024-01-30T04:58:46;98948.66;;;-0.62;100.00
49194;BME280;35029;50.804;12.866;2024-01-30T05:01:15;98951.63;;;-0.54;100.00
49194;BME280;35029;50.804;12.866;2024-01-30T05:03:41;98961.75;;;-0.49;100.00
49194;BME280;35029;50.804;12.866;2024-01-30T05:06:07;98949.28;;;-0.59;100.00
49194;BME280;35029;50.804;12.866;2024-01-30T05:08:32;98954.78;;;-0.49;100.00
49194;BME280;35029;50.804;12.866;2024-01-30T05:11:01;98950.84;;;-0.56;100.00
49194;BME280;35029;50.804;12.866;2024-01-30T05:13:32;98959.03;;;-0.48;100.00
49194;BME280;35029;50.804;12.866;2024-01-30T05:15:58;98965.00;;;-0.46;100.00
49194;BME280;35029;50.804;12.866;2024-01-30T05:18:23;98956.16;;;-0.43;100.00
49194;BME280;35029;50.804;12.866;2024-01-30T05:20:51;98951.97;;;-0.46;100.00
49194;BME280;35029;50.804;12.866;2024-01-30T05:23:17;98956.25;;;-0.45;100.00
49194;BME280;35029;50.804;12.866;2024-01-30T05:25:42;98958.75;;;-0.43;100.00
49194;BME280;35029;50.804;12.866;2024-01-30T05:28:08;98962.19;;;-0.43;100.00
49194;BME280;35029;50.804;12.866;2024-01-30T05:30:33;98960.72;;;-0.47;100.00
49194;BME280;35029;50.804;12.866;2024-01-30T05:32:59;98960.63;;;-0.45;100.00
49194;BME280;35029;50.804;12.866;2024-01-30T05:35:24;98949.38;;;-0.46;100.00
49194;BME280;35029;50.804;12.866;2024-01-30T05:37:50;98954.84;;;-0.51;100.00
49194;BME280;35029;50.804;12.866;2024-01-30T05:40:16;98953.00;;;-0.48;100.00
49194;BME280;35029;50.804;12.866;2024-01-30T05:42:42;98950.59;;;-0.52;100.00
49194;BME280;35029;50.804;12.866;2024-01-30T05:45:08;98959.34;;;-0.53;100.00
49194;BME280;35029;50.804;12.866;2024-01-30T05:47:34;98920.84;;;-0.76;100.00
49194;BME280;35029;50.804;12.866;2024-01-30T05:50:00;98962.97;;;-0.55;100.00
49194;BME280;35029;50.804;12.866;2024-01-30T05:52:26;98956.56;;;-0.64;100.00
49194;BME280;35029;50.804;12.866;2024-01-30T05:54:51;98962.28;;;-0.59;100.00
49194;BME280;35029;50.804;12.866;2024-01-30T05:57:17;98947.34;;;-0.70;100.00
49194;BME280;35029;50.804;12.866;2024-01-30T05:59:44;98946.31;;;-0.67;100.00
49194;BME280;35029;50.804;12.866;2024-01-30T06:02:10;98962.59;;;-0.63;100.00
49194;BME280;35029;50.804;12.866;2024-01-30T06:04:36;98971.16;;;-0.61;100.00
49194;BME280;35029;50.804;12.866;2024-01-30T06:07:02;98973.09;;;-0.65;100.00
49194;BME280;35029;50.804;12.866;2024-01-30T06:09:28;98980.00;;;-0.64;100.00
49194;BME280;35029;50.804;12.866;2024-01-30T06:11:54;98972.53;;;-0.70;100.00
49194;BME280;35029;50.804;12.866;2024-01-30T06:14:20;98979.91;;;-0.62;100.00
49194;BME280;35029;50.804;12.866;2024-01-30T06:16:46;98959.63;;;-0.72;100.00
49194;BME280;35029;50.804;12.866;2024-01-30T06:19:11;98973.84;;;-0.63;100.00
49194;BME280;35029;50.804;12.866;2024-01-30T06:21:37;98975.72;;;-0.65;100.00
49194;BME280;35029;50.804;12.866;2024-01-30T06:24:04;98976.53;;;-0.64;100.00
49194;BME280;35029;50.804;12.866;2024-01-30T06:26:30;98975.50;;;-0.62;100.00
49194;BME280;35029;50.804;12.866;2024-01-30T06:28:56;98970.69;;;-0.68;100.00
49194;BME280;35029;50.804;12.866;2024-01-30T06:31:22;98975.97;;;-0.70;100.00
49194;BME280;35029;50.804;12.866;2024-01-30T06:33:48;98977.03;;;-0.72;100.00
49194;BME280;35029;50.804;12.866;2024-01-30T06:36:13;98965.03;;;-0.75;100.00
49194;BME280;35029;50.804;12.866;2024-01-30T06:38:39;98955.06;;;-0.82;100.00
49194;BME280;35029;50.804;12.866;2024-01-30T06:41:05;98965.66;;;-0.71;100.00
49194;BME280;35029;50.804;12.866;2024-01-30T06:43:30;98972.66;;;-0.72;100.00
49194;BME280;35029;50.804;12.866;2024-01-30T06:45:56;98966.50;;;-0.71;100.00
49194;BME280;35029;50.804;12.866;2024-01-30T06:48:21;98966.06;;;-0.77;100.00
49194;BME280;35029;50.804;12.866;2024-01-30T06:50:47;98976.94;;;-0.71;100.00
49194;BME280;35029;50.804;12.866;2024-01-30T06:53:13;98982.78;;;-0.67;100.00
49194;BME280;35029;50.804;12.866;2024-01-30T06:55:38;98961.88;;;-0.80;100.00
49194;BME280;35029;50.804;12.866;2024-01-30T06:58:04;98980.25;;;-0.69;100.00
49194;BME280;35029;50.804;12.866;2024-01-30T07:00:30;98968.16;;;-0.70;100.00
49194;BME280;35029;50.804;12.866;2024-01-30T07:02:56;98982.03;;;-0.69;100.00
49194;BME280;35029;50.804;12.866;2024-01-30T07:05:22;98976.72;;;-0.68;100.00
49194;BME280;35029;50.804;12.866;2024-01-30T07:07:49;98979.91;;;-0.62;100.00
49194;BME280;35029;50.804;12.866;2024-01-30T07:10:15;98969.59;;;-0.64;100.00
49194;BME280;35029;50.804;12.866;2024-01-30T07:12:40;98980.16;;;-0.53;100.00
49194;BME280;35029;50.804;12.866;2024-01-30T07:15:06;98961.19;;;-0.55;100.00
49194;BME280;35029;50.804;12.866;2024-01-30T07:17:34;98949.16;;;-0.43;100.00
49194;BME280;35029;50.804;12.866;2024-01-30T07:20:00;98947.16;;;-0.25;100.00
49194;BME280;35029;50.804;12.866;2024-01-30T07:22:29;98976.47;;;-0.07;100.00
49194;BME280;35029;50.804;12.866;2024-01-30T07:24:55;98981.75;;;-0.08;100.00
49194;BME280;35029;50.804;12.866;2024-01-30T07:27:21;98976.00;;;-0.13;100.00
49194;BME280;35029;50.804;12.866;2024-01-30T07:29:47;99006.88;;;-0.07;100.00
49194;BME280;35029;50.804;12.866;2024-01-30T07:32:12;99000.28;;;0.02;100.00
49194;BME280;35029;50.804;12.866;2024-01-30T07:34:38;99011.94;;;0.23;100.00
49194;BME280;35029;50.804;12.866;2024-01-30T07:37:04;98968.09;;;0.15;100.00
49194;BME280;35029;50.804;12.866;2024-01-30T07:39:29;98999.41;;;0.56;100.00
49194;BME280;35029;50.804;12.866;2024-01-30T07:41:55;99003.63;;;0.71;100.00
49194;BME280;35029;50.804;12.866;2024-01-30T07:44:20;99003.41;;;0.74;100.00
49194;BME280;35029;50.804;12.866;2024-01-30T07:46:46;99016.69;;;0.71;100.00
49194;BME280;35029;50.804;12.866;2024-01-30T07:49:12;99017.59;;;0.70;100.00
49194;BME280;35029;50.804;12.866;2024-01-30T07:51:39;98993.47;;;0.66;100.00
49194;BME280;35029;50.804;12.866;2024-01-30T07:54:05;99007.72;;;0.88;100.00
49194;BME280;35029;50.804;12.866;2024-01-30T07:56:30;99011.56;;;0.95;100.00
49194;BME280;35029;50.804;12.866;2024-01-30T07:58:56;99000.41;;;1.06;100.00
49194;BME280;35029;50.804;12.866;2024-01-30T08:01:21;99000.94;;;1.11;100.00
49194;BME280;35029;50.804;12.866;2024-01-30T08:03:47;99002.94;;;1.21;100.00
49194;BME280;35029;50.804;12.866;2024-01-30T08:06:13;98981.22;;;1.20;100.00
49194;BME280;35029;50.804;12.866;2024-01-30T08:08:38;98984.44;;;1.37;100.00
49194;BME280;35029;50.804;12.866;2024-01-30T08:11:04;98998.00;;;1.55;100.00
49194;BME280;35029;50.804;12.866;2024-01-30T08:13:30;98997.94;;;1.67;100.00
49194;BME280;35029;50.804;12.866;2024-01-30T08:15:55;98998.59;;;1.71;100.00
49194;BME280;35029;50.804;12.866;2024-01-30T08:18:21;98962.22;;;1.55;100.00
49194;BME280;35029;50.804;12.866;2024-01-30T08:20:46;98989.41;;;1.65;100.00
49194;BME280;35029;50.804;12.866;2024-01-30T08:23:12;98997.19;;;1.78;100.00
49194;BME280;35029;50.804;12.866;2024-01-30T08:25:38;98963.31;;;1.77;100.00
49194;BME280;35029;50.804;12.866;2024-01-30T08:28:04;98981.25;;;1.94;100.00
49194;BME280;35029;50.804;12.866;2024-01-30T08:30:29;98953.19;;;1.96;100.00
49194;BME280;35029;50.804;12.866;2024-01-30T08:32:55;98979.47;;;2.19;100.00
49194;BME280;35029;50.804;12.866;2024-01-30T08:35:22;98975.38;;;2.28;100.00
49194;BME280;35029;50.804;12.866;2024-01-30T08:37:48;98989.56;;;2.36;100.00
49194;BME280;35029;50.804;12.866;2024-01-30T08:40:13;98971.91;;;2.27;100.00
49194;BME280;35029;50.804;12.866;2024-01-30T08:42:39;98980.81;;;2.25;100.00
49194;BME280;35029;50.804;12.866;2024-01-30T08:45:05;98972.81;;;2.15;100.00
49194;BME280;35029;50.804;12.866;2024-01-30T08:47:30;98978.16;;;2.13;100.00
49194;BME280;35029;50.804;12.866;2024-01-30T08:49:56;98993.19;;;2.23;100.00
49194;BME280;35029;50.804;12.866;2024-01-30T08:52:22;98991.91;;;2.28;100.00
49194;BME280;35029;50.804;12.866;2024-01-30T08:54:47;98983.13;;;2.29;100.00
49194;BME280;35029;50.804;12.866;2024-01-30T08:57:13;98977.53;;;2.34;100.00
49194;BME280;35029;50.804;12.866;2024-01-30T08:59:38;98989.97;;;2.54;100.00
49194;BME280;35029;50.804;12.866;2024-01-30T09:02:05;98991.69;;;2.67;100.00
49194;BME280;35029;50.804;12.866;2024-01-30T09:04:30;98990.75;;;2.79;99.72
49194;BME280;35029;50.804;12.866;2024-01-30T09:06:56;98994.38;;;2.90;99.03
49194;BME280;35029;50.804;12.866;2024-01-30T09:09:22;98990.22;;;2.98;97.86
49194;BME280;35029;50.804;12.866;2024-01-30T09:11:47;98997.63;;;3.16;96.65
49194;BME280;35029;50.804;12.866;2024-01-30T09:14:13;98988.63;;;3.31;95.84
49194;BME280;35029;50.804;12.866;2024-01-30T09:16:39;98979.19;;;3.40;94.05
49194;BME280;35029;50.804;12.866;2024-01-30T09:19:05;98973.22;;;3.49;92.64
49194;BME280;35029;50.804;12.866;2024-01-30T09:21:30;98985.03;;;3.78;90.74
49194;BME280;35029;50.804;12.866;2024-01-30T09:24:02;98977.13;;;3.89;88.23
49194;BME280;35029;50.804;12.866;2024-01-30T09:26:29;98977.78;;;4.14;85.78
49194;BME280;35029;50.804;12.866;2024-01-30T09:28:54;98977.25;;;4.31;85.17
49194;BME280;35029;50.804;12.866;2024-01-30T09:31:20;98972.19;;;4.39;85.22
49194;BME280;35029;50.804;12.866;2024-01-30T09:33:45;98984.44;;;4.50;83.63
49194;BME280;35029;50.804;12.866;2024-01-30T09:36:13;98987.75;;;4.52;86.25
49194;BME280;35029;50.804;12.866;2024-01-30T09:38:40;98983.94;;;4.56;86.98
49194;BME280;35029;50.804;12.866;2024-01-30T09:41:09;98926.22;;;4.24;86.66
49194;BME280;35029;50.804;12.866;2024-01-30T09:43:37;98983.75;;;4.69;86.25
49194;BME280;35029;50.804;12.866;2024-01-30T09:46:03;98979.72;;;4.86;85.30
49194;BME280;35029;50.804;12.866;2024-01-30T09:48:31;98984.94;;;4.98;81.62
49194;BME280;35029;50.804;12.866;2024-01-30T09:50:57;98969.03;;;4.99;79.00
49194;BME280;35029;50.804;12.866;2024-01-30T09:53:23;98964.09;;;5.06;75.81
49194;BME280;35029;50.804;12.866;2024-01-30T09:55:50;98974.41;;;5.29;75.20
49194;BME280;35029;50.804;12.866;2024-01-30T09:58:16;98978.25;;;5.46;73.70
49194;BME280;35029;50.804;12.866;2024-01-30T10:00:42;98961.22;;;5.40;72.84
49194;BME280;35029;50.804;12.866;2024-01-30T10:03:08;98986.91;;;5.67;72.77
49194;BME280;35029;50.804;12.866;2024-01-30T10:05:35;98980.28;;;5.73;73.53
49194;BME280;35029;50.804;12.866;2024-01-30T10:08:06;98969.19;;;5.69;73.85
49194;BME280;35029;50.804;12.866;2024-01-30T10:10:34;98967.16;;;5.83;74.35
49194;BME280;35029;50.804;12.866;2024-01-30T10:13:00;98981.03;;;5.95;74.98
49194;BME280;35029;50.804;12.866;2024-01-30T10:15:25;98966.66;;;5.99;73.38
49194;BME280;35029;50.804;12.866;2024-01-30T10:17:53;98974.72;;;6.07;72.15
49194;BME280;35029;50.804;12.866;2024-01-30T10:20:18;98977.50;;;6.15;70.38
49194;BME280;35029;50.804;12.866;2024-01-30T10:22:45;98964.34;;;6.15;67.87
49194;BME280;35029;50.804;12.866;2024-01-30T10:25:11;98957.81;;;6.19;65.39
49194;BME280;35029;50.804;12.866;2024-01-30T10:27:39;98954.91;;;6.22;63.92
49194;BME280;35029;50.804;12.866;2024-01-30T10:30:05;98960.16;;;6.42;63.23
49194;BME280;35029;50.804;12.866;2024-01-30T10:32:31;98962.41;;;6.56;62.35
49194;BME280;35029;50.804;12.866;2024-01-30T10:34:56;98956.69;;;6.61;63.07
49194;BME280;35029;50.804;12.866;2024-01-30T10:37:25;98960.47;;;6.68;64.29
49194;BME280;35029;50.804;12.866;2024-01-30T10:39:53;98948.81;;;6.71;62.65
49194;BME280;35029;50.804;12.866;2024-01-30T10:42:19;98939.31;;;6.88;61.34
49194;BME280;35029;50.804;12.866;2024-01-30T10:47:28;98940.75;;;7.20;59.42
49194;BME280;35029;50.804;12.866;2024-01-30T10:49:55;98934.34;;;7.32;60.31
49194;BME280;35029;50.804;12.866;2024-01-30T10:52:23;98927.75;;;7.46;59.31
49194;BME280;35029;50.804;12.866;2024-01-30T10:54:54;98928.09;;;7.61;59.32
49194;BME280;35029;50.804;12.866;2024-01-30T10:57:24;98925.72;;;7.68;59.79
49194;BME280;35029;50.804;12.866;2024-01-30T10:59:53;98927.91;;;7.90;59.95
49194;BME280;35029;50.804;12.866;2024-01-30T11:02:21;98923.19;;;7.94;62.37
49194;BME280;35029;50.804;12.866;2024-01-30T11:04:49;98920.94;;;8.17;63.52
49194;BME280;35029;50.804;12.866;2024-01-30T11:07:18;98921.81;;;8.26;63.76
49194;BME280;35029;50.804;12.866;2024-01-30T11:09:53;98908.16;;;8.31;64.74
49194;BME280;35029;50.804;12.866;2024-01-30T11:12:25;98919.78;;;8.38;65.98
49194;BME280;35029;50.804;12.866;2024-01-30T11:17:29;98895.41;;;8.44;67.08
49194;BME280;35029;50.804;12.866;2024-01-30T11:20:04;98907.75;;;8.61;67.75
49194;BME280;35029;50.804;12.866;2024-01-30T11:22:30;98902.91;;;8.75;68.52
49194;BME280;35029;50.804;12.866;2024-01-30T11:24:56;98897.00;;;8.81;69.08
49194;BME280;35029;50.804;12.866;2024-01-30T11:27:22;98905.97;;;8.88;69.56
49194;BME280;35029;50.804;12.866;2024-01-30T11:29:50;98897.56;;;8.93;69.27
49194;BME280;35029;50.804;12.866;2024-01-30T11:32:22;98896.09;;;8.90;71.27
49194;BME280;35029;50.804;12.866;2024-01-30T11:34:49;98895.56;;;8.87;71.70
49194;BME280;35029;50.804;12.866;2024-01-30T11:37:16;98891.34;;;9.02;71.20
49194;BME280;35029;50.804;12.866;2024-01-30T11:39:45;98902.44;;;9.06;72.13
49194;BME280;35029;50.804;12.866;2024-01-30T11:42:12;98904.41;;;9.04;72.00
49194;BME280;35029;50.804;12.866;2024-01-30T11:44:39;98902.44;;;9.06;72.20
49194;BME280;35029;50.804;12.866;2024-01-30T11:47:04;98899.75;;;8.98;73.64
49194;BME280;35029;50.804;12.866;2024-01-30T11:49:30;98887.50;;;8.96;73.29
49194;BME280;35029;50.804;12.866;2024-01-30T11:51:55;98895.59;;;8.95;73.73
49194;BME280;35029;50.804;12.866;2024-01-30T11:54:21;98883.19;;;8.95;75.03
49194;BME280;35029;50.804;12.866;2024-01-30T11:56:47;98884.69;;;8.98;75.16
49194;BME280;35029;50.804;12.866;2024-01-30T11:59:13;98879.97;;;9.10;75.45
49194;BME280;35029;50.804;12.866;2024-01-30T12:01:39;98880.34;;;9.15;74.13
49194;BME280;35029;50.804;12.866;2024-01-30T12:04:07;98887.47;;;9.23;73.86
49194;BME280;35029;50.804;12.866;2024-01-30T12:06:36;98887.13;;;9.18;74.30
49194;BME280;35029;50.804;12.866;2024-01-30T12:09:03;98884.44;;;9.09;74.87
49194;BME280;35029;50.804;12.866;2024-01-30T12:11:46;98886.13;;;9.19;74.37
49194;BME280;35029;50.804;12.866;2024-01-30T12:14:12;98875.75;;;9.25;74.78
49194;BME280;35029;50.804;12.866;2024-01-30T12:16:39;98877.59;;;9.33;73.78
49194;BME280;35029;50.804;12.866;2024-01-30T12:19:04;98880.44;;;9.40;73.85
49194;BME280;35029;50.804;12.866;2024-01-30T12:21:30;98879.28;;;9.42;73.55
49194;BME280;35029;50.804;12.866;2024-01-30T12:23:59;98877.13;;;9.46;73.33
49194;BME280;35029;50.804;12.866;2024-01-30T12:26:25;98874.19;;;9.49;73.78
49194;BME280;35029;50.804;12.866;2024-01-30T12:28:54;98859.72;;;9.35;74.07
49194;BME280;35029;50.804;12.866;2024-01-30T12:31:31;98859.91;;;9.34;74.55
49194;BME280;35029;50.804;12.866;2024-01-30T12:33:59;98868.88;;;9.41;74.57
49194;BME280;35029;50.804;12.866;2024-01-30T12:36:25;98862.06;;;9.30;75.14
49194;BME280;35029;50.804;12.866;2024-01-30T12:38:51;98864.88;;;9.37;75.53
49194;BME280;35029;50.804;12.866;2024-01-30T12:41:16;98870.31;;;9.35;75.72
49194;BME280;35029;50.804;12.866;2024-01-30T12:43:42;98861.75;;;9.41;75.71
49194;BME280;35029;50.804;12.866;2024-01-30T12:46:08;98868.03;;;9.40;75.38
49194;BME280;35029;50.804;12.866;2024-01-30T12:48:34;98860.13;;;9.48;75.47